sensor_id;sensor_type;location;lat;lon;timestamp;P1;durP1;ratioP1;P2;durP2;ratioP2
7645;SDS011;3864;48.180;14.178;2024-03-22T00:01:59;25.55;;;15.32;;
7645;SDS011;3864;48.180;14.178;2024-03-22T00:04:28;26.50;;;14.77;;
7645;SDS011;3864;48.180;14.178;2024-03-22T00:06:59;23.00;;;13.48;;
7645;SDS011;3864;48.180;14.178;2024-03-22T00:09:32;26.85;;;14.27;;
7645;SDS011;3864;48.180;14.178;2024-03-22T00:12:03;26.05;;;14.48;;
7645;SDS011;3864;48.180;14.178;2024-03-22T00:14:29;28.25;;;15.18;;
7645;SDS011;3864;48.180;14.178;2024-03-22T00:16:57;25.40;;;14.88;;
7645;SDS011;3864;48.180;14.178;2024-03-22T00:19:23;25.17;;;15.65;;
7645;SDS011;3864;48.180;14.178;2024-03-22T00:21:50;28.02;;;14.27;;
7645;SDS011;3864;48.180;14.178;2024-03-22T00:24:16;28.05;;;15.75;;
7645;SDS011;3864;48.180;14.178;2024-03-22T00:26:45;30.67;;;15.15;;
7645;SDS011;3864;48.180;14.178;2024-03-22T00:29:11;30.63;;;17.10;;
7645;SDS011;3864;48.180;14.178;2024-03-22T00:31:38;27.75;;;16.02;;
7645;SDS011;3864;48.180;14.178;2024-03-22T00:34:05;28.80;;;14.80;;
7645;SDS011;3864;48.180;14.178;2024-03-22T00:36:31;28.67;;;14.65;;
7645;SDS011;3864;48.180;14.178;2024-03-22T00:38:58;34.53;;;16.15;;
7645;SDS011;3864;48.180;14.178;2024-03-22T00:41:24;27.58;;;14.95;;
7645;SDS011;3864;48.180;14.178;2024-03-22T00:43:54;27.13;;;14.35;;
7645;SDS011;3864;48.180;14.178;2024-03-22T00:46:20;25.60;;;14.48;;
7645;SDS011;3864;48.180;14.178;2024-03-22T00:48:47;31.65;;;15.65;;
7645;SDS011;3864;48.180;14.178;2024-03-22T00:51:13;32.58;;;15.85;;
7645;SDS011;3864;48.180;14.178;2024-03-22T00:53:40;24.70;;;14.07;;
7645;SDS011;3864;48.180;14.178;2024-03-22T00:56:06;26.70;;;14.95;;
7645;SDS011;3864;48.180;14.178;2024-03-22T00:58:33;27.10;;;15.27;;
7645;SDS011;3864;48.180;14.178;2024-03-22T01:01:01;29.95;;;15.40;;
7645;SDS011;3864;48.180;14.178;2024-03-22T01:03:28;29.67;;;14.73;;
7645;SDS011;3864;48.180;14.178;2024-03-22T01:05:54;27.05;;;15.48;;
7645;SDS011;3864;48.180;14.178;2024-03-22T01:08:22;28.25;;;15.63;;
7645;SDS011;3864;48.180;14.178;2024-03-22T01:10:48;28.80;;;14.90;;
7645;SDS011;3864;48.180;14.178;2024-03-22T01:13:16;33.70;;;16.58;;
7645;SDS011;3864;48.180;14.178;2024-03-22T01:15:42;27.13;;;14.77;;
7645;SDS011;3864;48.180;14.178;2024-03-22T01:18:12;28.30;;;15.25;;
7645;SDS011;3864;48.180;14.178;2024-03-22T01:20:39;33.03;;;16.52;;
7645;SDS011;3864;48.180;14.178;2024-03-22T01:23:07;27.48;;;14.32;;
7645;SDS011;3864;48.180;14.178;2024-03-22T01:25:33;32.22;;;15.73;;
7645;SDS011;3864;48.180;14.178;2024-03-22T01:28:00;31.77;;;14.88;;
7645;SDS011;3864;48.180;14.178;2024-03-22T01:30:26;29.90;;;15.45;;
7645;SDS011;3864;48.180;14.178;2024-03-22T01:32:55;30.13;;;16.88;;
7645;SDS011;3864;48.180;14.178;2024-03-22T01:35:23;32.45;;;16.13;;
7645;SDS011;3864;48.180;14.178;2024-03-22T01:37:50;31.83;;;16.58;;
7645;SDS011;3864;48.180;14.178;2024-03-22T01:40:16;32.45;;;15.45;;
7645;SDS011;3864;48.180;14.178;2024-03-22T01:42:43;32.45;;;17.42;;
7645;SDS011;3864;48.180;14.178;2024-03-22T01:45:09;35.13;;;16.85;;
7645;SDS011;3864;48.180;14.178;2024-03-22T01:47:40;32.50;;;16.95;;
7645;SDS011;3864;48.180;14.178;2024-03-22T01:50:07;33.92;;;16.48;;
7645;SDS011;3864;48.180;14.178;2024-03-22T01:52:38;36.33;;;18.15;;
7645;SDS011;3864;48.180;14.178;2024-03-22T01:55:05;30.75;;;16.52;;
7645;SDS011;3864;48.180;14.178;2024-03-22T01:57:34;34.10;;;16.15;;
7645;SDS011;3864;48.180;14.178;2024-03-22T02:00:01;28.75;;;14.93;;
7645;SDS011;3864;48.180;14.178;2024-03-22T02:02:29;33.05;;;17.55;;
7645;SDS011;3864;48.180;14.178;2024-03-22T02:04:56;33.25;;;16.65;;
7645;SDS011;3864;48.180;14.178;2024-03-22T02:07:24;37.03;;;16.70;;
7645;SDS011;3864;48.180;14.178;2024-03-22T02:09:54;32.60;;;16.92;;
7645;SDS011;3864;48.180;14.178;2024-03-22T02:12:22;34.22;;;16.95;;
7645;SDS011;3864;48.180;14.178;2024-03-22T02:14:48;34.03;;;17.25;;
7645;SDS011;3864;48.180;14.178;2024-03-22T02:17:17;32.83;;;15.98;;
7645;SDS011;3864;48.180;14.178;2024-03-22T02:19:43;31.05;;;16.50;;
7645;SDS011;3864;48.180;14.178;2024-03-22T02:22:10;36.88;;;17.45;;
7645;SDS011;3864;48.180;14.178;2024-03-22T02:24:38;41.33;;;18.90;;
7645;SDS011;3864;48.180;14.178;2024-03-22T02:27:05;35.75;;;17.83;;
7645;SDS011;3864;48.180;14.178;2024-03-22T02:29:31;39.38;;;16.55;;
7645;SDS011;3864;48.180;14.178;2024-03-22T02:31:58;39.03;;;16.73;;
7645;SDS011;3864;48.180;14.178;2024-03-22T02:34:24;34.42;;;16.38;;
7645;SDS011;3864;48.180;14.178;2024-03-22T02:36:51;35.67;;;17.50;;
7645;SDS011;3864;48.180;14.178;2024-03-22T02:39:17;37.05;;;15.63;;
7645;SDS011;3864;48.180;14.178;2024-03-22T02:41:46;31.60;;;16.23;;
7645;SDS011;3864;48.180;14.178;2024-03-22T02:44:12;38.03;;;17.52;;
7645;SDS011;3864;48.180;14.178;2024-03-22T02:46:39;38.00;;;17.30;;
7645;SDS011;3864;48.180;14.178;2024-03-22T02:49:05;38.33;;;17.15;;
7645;SDS011;3864;48.180;14.178;2024-03-22T02:51:33;40.90;;;17.23;;
7645;SDS011;3864;48.180;14.178;2024-03-22T02:54:01;34.70;;;18.05;;
7645;SDS011;3864;48.180;14.178;2024-03-22T02:56:29;35.05;;;16.63;;
7645;SDS011;3864;48.180;14.178;2024-03-22T02:58:56;34.00;;;17.35;;
7645;SDS011;3864;48.180;14.178;2024-03-22T03:01:24;34.70;;;16.33;;
7645;SDS011;3864;48.180;14.178;2024-03-22T03:03:50;31.65;;;15.32;;
7645;SDS011;3864;48.180;14.178;2024-03-22T03:06:17;32.28;;;16.48;;
7645;SDS011;3864;48.180;14.178;2024-03-22T03:08:45;33.90;;;16.35;;
7645;SDS011;3864;48.180;14.178;2024-03-22T03:11:12;30.23;;;13.88;;
7645;SDS011;3864;48.180;14.178;2024-03-22T03:13:39;29.27;;;15.38;;
7645;SDS011;3864;48.180;14.178;2024-03-22T03:19:41;26.95;;;14.02;;
7645;SDS011;3864;48.180;14.178;2024-03-22T03:22:08;23.52;;;13.43;;
7645;SDS011;3864;48.180;14.178;2024-03-22T03:24:34;26.98;;;13.77;;
7645;SDS011;3864;48.180;14.178;2024-03-22T03:27:01;27.67;;;14.18;;
7645;SDS011;3864;48.180;14.178;2024-03-22T03:29:36;26.05;;;13.35;;
7645;SDS011;3864;48.180;14.178;2024-03-22T03:34:30;25.98;;;13.38;;
7645;SDS011;3864;48.180;14.178;2024-03-22T03:36:59;26.45;;;13.07;;
7645;SDS011;3864;48.180;14.178;2024-03-22T03:39:26;25.63;;;13.05;;
7645;SDS011;3864;48.180;14.178;2024-03-22T03:41:54;27.20;;;13.05;;
7645;SDS011;3864;48.180;14.178;2024-03-22T03:44:20;30.08;;;14.77;;
7645;SDS011;3864;48.180;14.178;2024-03-22T03:46:47;26.40;;;13.55;;
7645;SDS011;3864;48.180;14.178;2024-03-22T03:49:13;26.52;;;15.07;;
7645;SDS011;3864;48.180;14.178;2024-03-22T03:51:40;28.30;;;13.98;;
7645;SDS011;3864;48.180;14.178;2024-03-22T03:54:08;28.98;;;13.52;;
7645;SDS011;3864;48.180;14.178;2024-03-22T03:56:35;29.40;;;15.02;;
7645;SDS011;3864;48.180;14.178;2024-03-22T03:59:01;35.10;;;15.20;;
7645;SDS011;3864;48.180;14.178;2024-03-22T04:01:29;26.38;;;13.43;;
7645;SDS011;3864;48.180;14.178;2024-03-22T04:03:55;26.95;;;13.73;;
7645;SDS011;3864;48.180;14.178;2024-03-22T04:06:25;29.23;;;13.57;;
7645;SDS011;3864;48.180;14.178;2024-03-22T04:08:51;27.38;;;13.15;;
7645;SDS011;3864;48.180;14.178;2024-03-22T04:11:20;25.50;;;14.27;;
7645;SDS011;3864;48.180;14.178;2024-03-22T04:13:46;30.98;;;14.02;;
7645;SDS011;3864;48.180;14.178;2024-03-22T04:16:13;30.67;;;14.75;;
7645;SDS011;3864;48.180;14.178;2024-03-22T04:18:39;31.48;;;14.75;;
7645;SDS011;3864;48.180;14.178;2024-03-22T04:21:07;32.10;;;14.60;;
7645;SDS011;3864;48.180;14.178;2024-03-22T04:23:33;28.95;;;13.40;;
7645;SDS011;3864;48.180;14.178;2024-03-22T04:26:00;30.13;;;15.02;;
7645;SDS011;3864;48.180;14.178;2024-03-22T04:28:29;30.73;;;14.57;;
7645;SDS011;3864;48.180;14.178;2024-03-22T04:30:58;32.03;;;14.05;;
7645;SDS011;3864;48.180;14.178;2024-03-22T04:33:25;29.00;;;13.70;;
7645;SDS011;3864;48.180;14.178;2024-03-22T04:35:53;26.55;;;13.07;;
7645;SDS011;3864;48.180;14.178;2024-03-22T04:38:19;30.23;;;13.43;;
7645;SDS011;3864;48.180;14.178;2024-03-22T04:40:46;31.92;;;14.13;;
7645;SDS011;3864;48.180;14.178;2024-03-22T04:43:13;29.67;;;13.60;;
7645;SDS011;3864;48.180;14.178;2024-03-22T04:45:43;29.27;;;13.45;;
7645;SDS011;3864;48.180;14.178;2024-03-22T04:48:09;31.70;;;15.00;;
7645;SDS011;3864;48.180;14.178;2024-03-22T04:50:38;31.00;;;14.25;;
7645;SDS011;3864;48.180;14.178;2024-03-22T04:53:04;36.13;;;14.50;;
7645;SDS011;3864;48.180;14.178;2024-03-22T04:55:31;35.45;;;14.82;;
7645;SDS011;3864;48.180;14.178;2024-03-22T04:57:58;37.38;;;14.73;;
7645;SDS011;3864;48.180;14.178;2024-03-22T05:00:25;36.70;;;15.95;;
7645;SDS011;3864;48.180;14.178;2024-03-22T05:02:53;37.63;;;17.20;;
7645;SDS011;3864;48.180;14.178;2024-03-22T05:05:20;33.60;;;15.40;;
7645;SDS011;3864;48.180;14.178;2024-03-22T05:07:47;38.72;;;17.50;;
7645;SDS011;3864;48.180;14.178;2024-03-22T05:10:14;35.50;;;15.95;;
7645;SDS011;3864;48.180;14.178;2024-03-22T05:12:41;40.65;;;16.45;;
7645;SDS011;3864;48.180;14.178;2024-03-22T05:15:09;38.70;;;16.77;;
7645;SDS011;3864;48.180;14.178;2024-03-22T05:17:35;41.40;;;19.30;;
7645;SDS011;3864;48.180;14.178;2024-03-22T05:20:05;42.08;;;17.92;;
7645;SDS011;3864;48.180;14.178;2024-03-22T05:22:34;46.88;;;18.15;;
7645;SDS011;3864;48.180;14.178;2024-03-22T05:25:01;40.05;;;17.42;;
7645;SDS011;3864;48.180;14.178;2024-03-22T05:27:27;45.78;;;18.23;;
7645;SDS011;3864;48.180;14.178;2024-03-22T05:29:54;43.05;;;18.90;;
7645;SDS011;3864;48.180;14.178;2024-03-22T05:32:20;45.20;;;19.58;;
7645;SDS011;3864;48.180;14.178;2024-03-22T05:34:47;51.65;;;18.23;;
7645;SDS011;3864;48.180;14.178;2024-03-22T05:37:15;43.65;;;18.45;;
7645;SDS011;3864;48.180;14.178;2024-03-22T05:39:42;46.20;;;18.63;;
7645;SDS011;3864;48.180;14.178;2024-03-22T05:42:08;48.92;;;19.08;;
7645;SDS011;3864;48.180;14.178;2024-03-22T05:44:36;42.33;;;17.38;;
7645;SDS011;3864;48.180;14.178;2024-03-22T05:47:02;43.22;;;18.00;;
7645;SDS011;3864;48.180;14.178;2024-03-22T05:49:29;48.58;;;18.27;;
7645;SDS011;3864;48.180;14.178;2024-03-22T05:51:55;62.40;;;20.02;;
7645;SDS011;3864;48.180;14.178;2024-03-22T05:54:24;58.45;;;21.60;;
7645;SDS011;3864;48.180;14.178;2024-03-22T05:56:50;62.67;;;22.95;;
7645;SDS011;3864;48.180;14.178;2024-03-22T05:59:17;65.03;;;24.48;;
7645;SDS011;3864;48.180;14.178;2024-03-22T06:01:43;63.92;;;23.42;;
7645;SDS011;3864;48.180;14.178;2024-03-22T06:04:10;62.22;;;22.42;;
7645;SDS011;3864;48.180;14.178;2024-03-22T06:06:36;67.57;;;25.63;;
7645;SDS011;3864;48.180;14.178;2024-03-22T06:09:04;63.58;;;25.50;;
7645;SDS011;3864;48.180;14.178;2024-03-22T06:11:36;67.82;;;25.88;;
7645;SDS011;3864;48.180;14.178;2024-03-22T06:17:03;57.92;;;22.20;;
7645;SDS011;3864;48.180;14.178;2024-03-22T06:19:31;62.28;;;25.30;;
7645;SDS011;3864;48.180;14.178;2024-03-22T06:21:57;70.32;;;27.17;;
7645;SDS011;3864;48.180;14.178;2024-03-22T06:24:24;68.68;;;26.42;;
7645;SDS011;3864;48.180;14.178;2024-03-22T06:26:52;68.63;;;26.38;;
7645;SDS011;3864;48.180;14.178;2024-03-22T06:29:19;67.70;;;24.85;;
7645;SDS011;3864;48.180;14.178;2024-03-22T06:31:45;73.95;;;27.08;;
7645;SDS011;3864;48.180;14.178;2024-03-22T06:34:12;65.97;;;26.83;;
7645;SDS011;3864;48.180;14.178;2024-03-22T06:36:38;72.45;;;26.73;;
7645;SDS011;3864;48.180;14.178;2024-03-22T06:39:05;59.13;;;25.92;;
7645;SDS011;3864;48.180;14.178;2024-03-22T06:41:33;66.45;;;26.17;;
7645;SDS011;3864;48.180;14.178;2024-03-22T06:44:03;71.40;;;26.98;;
7645;SDS011;3864;48.180;14.178;2024-03-22T06:46:29;64.28;;;27.45;;
7645;SDS011;3864;48.180;14.178;2024-03-22T06:48:57;63.42;;;26.35;;
7645;SDS011;3864;48.180;14.178;2024-03-22T06:51:23;59.92;;;26.17;;
7645;SDS011;3864;48.180;14.178;2024-03-22T06:53:50;61.28;;;24.50;;
7645;SDS011;3864;48.180;14.178;2024-03-22T06:56:16;55.70;;;24.45;;
7645;SDS011;3864;48.180;14.178;2024-03-22T06:58:44;54.28;;;25.63;;
7645;SDS011;3864;48.180;14.178;2024-03-22T07:01:12;57.88;;;28.63;;
7645;SDS011;3864;48.180;14.178;2024-03-22T07:03:39;56.75;;;24.35;;
7645;SDS011;3864;48.180;14.178;2024-03-22T07:06:05;53.63;;;25.02;;
7645;SDS011;3864;48.180;14.178;2024-03-22T07:08:34;55.90;;;24.40;;
7645;SDS011;3864;48.180;14.178;2024-03-22T07:11:04;48.92;;;24.13;;
7645;SDS011;3864;48.180;14.178;2024-03-22T07:13:31;48.70;;;23.33;;
7645;SDS011;3864;48.180;14.178;2024-03-22T07:15:57;48.10;;;24.17;;
7645;SDS011;3864;48.180;14.178;2024-03-22T07:18:26;47.30;;;23.55;;
7645;SDS011;3864;48.180;14.178;2024-03-22T07:20:52;41.95;;;21.42;;
7645;SDS011;3864;48.180;14.178;2024-03-22T07:23:20;35.38;;;20.23;;
7645;SDS011;3864;48.180;14.178;2024-03-22T07:25:46;39.70;;;21.08;;
7645;SDS011;3864;48.180;14.178;2024-03-22T07:28:13;39.92;;;21.27;;
7645;SDS011;3864;48.180;14.178;2024-03-22T07:30:40;35.17;;;19.85;;
7645;SDS011;3864;48.180;14.178;2024-03-22T07:33:08;36.35;;;19.42;;
7645;SDS011;3864;48.180;14.178;2024-03-22T07:35:37;32.70;;;20.67;;
7645;SDS011;3864;48.180;14.178;2024-03-22T07:38:04;34.30;;;19.08;;
7645;SDS011;3864;48.180;14.178;2024-03-22T07:40:30;33.22;;;17.48;;
7645;SDS011;3864;48.180;14.178;2024-03-22T07:42:57;30.52;;;17.90;;
7645;SDS011;3864;48.180;14.178;2024-03-22T07:45:24;28.88;;;17.60;;
7645;SDS011;3864;48.180;14.178;2024-03-22T07:47:51;29.35;;;17.92;;
7645;SDS011;3864;48.180;14.178;2024-03-22T07:50:17;29.08;;;16.73;;
7645;SDS011;3864;48.180;14.178;2024-03-22T07:52:46;29.67;;;16.33;;
7645;SDS011;3864;48.180;14.178;2024-03-22T07:55:12;27.02;;;15.30;;
7645;SDS011;3864;48.180;14.178;2024-03-22T07:57:40;24.20;;;15.63;;
7645;SDS011;3864;48.180;14.178;2024-03-22T08:00:06;27.05;;;15.55;;
7645;SDS011;3864;48.180;14.178;2024-03-22T08:02:35;25.67;;;16.08;;
7645;SDS011;3864;48.180;14.178;2024-03-22T08:05:01;26.05;;;16.75;;
7645;SDS011;3864;48.180;14.178;2024-03-22T08:07:29;24.10;;;14.43;;
7645;SDS011;3864;48.180;14.178;2024-03-22T08:09:56;23.60;;;15.30;;
7645;SDS011;3864;48.180;14.178;2024-03-22T08:12:25;22.10;;;14.65;;
7645;SDS011;3864;48.180;14.178;2024-03-22T08:14:51;23.45;;;14.00;;
7645;SDS011;3864;48.180;14.178;2024-03-22T08:17:18;20.48;;;13.05;;
7645;SDS011;3864;48.180;14.178;2024-03-22T08:19:44;24.90;;;15.35;;
7645;SDS011;3864;48.180;14.178;2024-03-22T08:22:12;25.27;;;14.65;;
7645;SDS011;3864;48.180;14.178;2024-03-22T08:24:39;21.60;;;13.32;;
7645;SDS011;3864;48.180;14.178;2024-03-22T08:27:08;19.85;;;13.88;;
7645;SDS011;3864;48.180;14.178;2024-03-22T08:29:34;23.35;;;14.57;;
7645;SDS011;3864;48.180;14.178;2024-03-22T08:32:01;20.98;;;14.13;;
7645;SDS011;3864;48.180;14.178;2024-03-22T08:34:29;19.73;;;13.27;;
7645;SDS011;3864;48.180;14.178;2024-03-22T08:36:57;24.42;;;15.45;;
7645;SDS011;3864;48.180;14.178;2024-03-22T08:39:23;22.13;;;13.57;;
7645;SDS011;3864;48.180;14.178;2024-03-22T08:41:50;21.42;;;12.98;;
7645;SDS011;3864;48.180;14.178;2024-03-22T08:44:18;18.90;;;12.93;;
7645;SDS011;3864;48.180;14.178;2024-03-22T08:46:46;23.15;;;14.60;;
7645;SDS011;3864;48.180;14.178;2024-03-22T08:49:12;19.45;;;13.25;;
7645;SDS011;3864;48.180;14.178;2024-03-22T08:51:39;21.77;;;14.00;;
7645;SDS011;3864;48.180;14.178;2024-03-22T08:54:06;19.30;;;13.45;;
7645;SDS011;3864;48.180;14.178;2024-03-22T08:56:34;20.17;;;12.73;;
7645;SDS011;3864;48.180;14.178;2024-03-22T08:59:00;19.70;;;14.05;;
7645;SDS011;3864;48.180;14.178;2024-03-22T09:01:29;20.40;;;12.63;;
7645;SDS011;3864;48.180;14.178;2024-03-22T09:03:55;19.65;;;13.02;;
7645;SDS011;3864;48.180;14.178;2024-03-22T09:06:22;20.48;;;13.50;;
7645;SDS011;3864;48.180;14.178;2024-03-22T09:08:48;20.25;;;12.02;;
7645;SDS011;3864;48.180;14.178;2024-03-22T09:11:15;16.90;;;12.35;;
7645;SDS011;3864;48.180;14.178;2024-03-22T09:13:43;17.30;;;11.32;;
7645;SDS011;3864;48.180;14.178;2024-03-22T09:16:14;17.85;;;11.60;;
7645;SDS011;3864;48.180;14.178;2024-03-22T09:18:43;17.55;;;11.70;;
7645;SDS011;3864;48.180;14.178;2024-03-22T09:21:09;17.25;;;12.15;;
7645;SDS011;3864;48.180;14.178;2024-03-22T09:23:36;16.30;;;10.55;;
7645;SDS011;3864;48.180;14.178;2024-03-22T09:26:03;17.30;;;10.43;;
7645;SDS011;3864;48.180;14.178;2024-03-22T09:28:30;15.88;;;11.05;;
7645;SDS011;3864;48.180;14.178;2024-03-22T09:30:57;16.23;;;10.20;;
7645;SDS011;3864;48.180;14.178;2024-03-22T09:33:24;15.70;;;12.02;;
7645;SDS011;3864;48.180;14.178;2024-03-22T09:35:52;18.90;;;11.93;;
7645;SDS011;3864;48.180;14.178;2024-03-22T09:38:19;13.80;;;11.13;;
7645;SDS011;3864;48.180;14.178;2024-03-22T09:40:46;15.07;;;10.57;;
7645;SDS011;3864;48.180;14.178;2024-03-22T09:43:13;15.52;;;11.50;;
7645;SDS011;3864;48.180;14.178;2024-03-22T09:45:43;15.25;;;10.82;;
7645;SDS011;3864;48.180;14.178;2024-03-22T09:48:11;16.92;;;10.48;;
7645;SDS011;3864;48.180;14.178;2024-03-22T09:50:38;13.57;;;9.40;;
7645;SDS011;3864;48.180;14.178;2024-03-22T09:53:07;13.93;;;9.02;;
7645;SDS011;3864;48.180;14.178;2024-03-22T09:55:34;12.68;;;8.93;;
7645;SDS011;3864;48.180;14.178;2024-03-22T09:58:07;13.55;;;9.00;;
7645;SDS011;3864;48.180;14.178;2024-03-22T10:01:05;13.65;;;8.57;;
7645;SDS011;3864;48.180;14.178;2024-03-22T10:03:32;12.35;;;8.48;;
7645;SDS011;3864;48.180;14.178;2024-03-22T10:05:58;11.15;;;8.60;;
7645;SDS011;3864;48.180;14.178;2024-03-22T10:08:28;15.77;;;9.52;;
7645;SDS011;3864;48.180;14.178;2024-03-22T10:10:55;13.52;;;8.25;;
7645;SDS011;3864;48.180;14.178;2024-03-22T10:13:22;10.80;;;8.77;;
7645;SDS011;3864;48.180;14.178;2024-03-22T10:15:48;12.98;;;8.48;;
7645;SDS011;3864;48.180;14.178;2024-03-22T10:18:16;13.57;;;8.82;;
7645;SDS011;3864;48.180;14.178;2024-03-22T10:20:42;11.90;;;7.57;;
7645;SDS011;3864;48.180;14.178;2024-03-22T10:23:09;11.55;;;7.88;;
7645;SDS011;3864;48.180;14.178;2024-03-22T10:25:37;10.20;;;7.05;;
7645;SDS011;3864;48.180;14.178;2024-03-22T10:28:05;10.55;;;7.30;;
7645;SDS011;3864;48.180;14.178;2024-03-22T10:30:31;10.63;;;7.22;;
7645;SDS011;3864;48.180;14.178;2024-03-22T10:33:02;9.75;;;6.82;;
7645;SDS011;3864;48.180;14.178;2024-03-22T10:35:29;11.25;;;7.78;;
7645;SDS011;3864;48.180;14.178;2024-03-22T10:37:57;12.05;;;7.45;;
7645;SDS011;3864;48.180;14.178;2024-03-22T10:40:23;9.25;;;6.03;;
7645;SDS011;3864;48.180;14.178;2024-03-22T10:42:53;9.98;;;7.55;;
7645;SDS011;3864;48.180;14.178;2024-03-22T10:45:19;8.32;;;6.40;;
7645;SDS011;3864;48.180;14.178;2024-03-22T10:47:50;9.02;;;5.35;;
7645;SDS011;3864;48.180;14.178;2024-03-22T10:50:20;8.15;;;4.95;;
7645;SDS011;3864;48.180;14.178;2024-03-22T10:52:50;8.13;;;5.32;;
7645;SDS011;3864;48.180;14.178;2024-03-22T10:55:30;8.70;;;6.00;;
7645;SDS011;3864;48.180;14.178;2024-03-22T10:58:00;8.02;;;6.13;;
7645;SDS011;3864;48.180;14.178;2024-03-22T11:00:27;10.90;;;5.88;;
7645;SDS011;3864;48.180;14.178;2024-03-22T11:02:55;9.52;;;5.53;;
7645;SDS011;3864;48.180;14.178;2024-03-22T11:05:22;9.90;;;6.00;;
7645;SDS011;3864;48.180;14.178;2024-03-22T11:07:58;8.80;;;6.20;;
7645;SDS011;3864;48.180;14.178;2024-03-22T11:10:25;8.45;;;5.97;;
7645;SDS011;3864;48.180;14.178;2024-03-22T11:13:02;7.90;;;5.43;;
7645;SDS011;3864;48.180;14.178;2024-03-22T11:15:29;11.40;;;5.93;;
7645;SDS011;3864;48.180;14.178;2024-03-22T11:21:21;8.05;;;5.30;;
7645;SDS011;3864;48.180;14.178;2024-03-22T11:23:49;8.52;;;6.25;;
7645;SDS011;3864;48.180;14.178;2024-03-22T11:26:20;9.15;;;6.60;;
7645;SDS011;3864;48.180;14.178;2024-03-22T11:28:49;7.57;;;5.85;;
7645;SDS011;3864;48.180;14.178;2024-03-22T11:31:15;8.85;;;6.53;;
7645;SDS011;3864;48.180;14.178;2024-03-22T11:37:30;8.18;;;5.32;;
7645;SDS011;3864;48.180;14.178;2024-03-22T11:40:32;9.82;;;6.22;;
7645;SDS011;3864;48.180;14.178;2024-03-22T11:43:00;7.55;;;5.90;;
7645;SDS011;3864;48.180;14.178;2024-03-22T11:45:29;8.07;;;5.22;;
7645;SDS011;3864;48.180;14.178;2024-03-22T11:48:01;9.02;;;6.32;;
7645;SDS011;3864;48.180;14.178;2024-03-22T11:50:27;8.30;;;6.30;;
7645;SDS011;3864;48.180;14.178;2024-03-22T11:52:55;9.98;;;5.35;;
7645;SDS011;3864;48.180;14.178;2024-03-22T11:55:22;9.07;;;5.53;;
7645;SDS011;3864;48.180;14.178;2024-03-22T11:57:53;10.65;;;5.85;;
7645;SDS011;3864;48.180;14.178;2024-03-22T12:00:19;10.70;;;6.20;;
7645;SDS011;3864;48.180;14.178;2024-03-22T12:02:49;9.10;;;6.30;;
7645;SDS011;3864;48.180;14.178;2024-03-22T12:05:16;8.05;;;5.68;;
7645;SDS011;3864;48.180;14.178;2024-03-22T12:07:44;8.85;;;5.50;;
7645;SDS011;3864;48.180;14.178;2024-03-22T12:10:10;10.70;;;6.05;;
7645;SDS011;3864;48.180;14.178;2024-03-22T12:12:37;9.40;;;7.05;;
7645;SDS011;3864;48.180;14.178;2024-03-22T12:15:03;8.57;;;6.28;;
7645;SDS011;3864;48.180;14.178;2024-03-22T12:17:31;9.52;;;6.45;;
7645;SDS011;3864;48.180;14.178;2024-03-22T12:20:00;10.85;;;6.18;;
7645;SDS011;3864;48.180;14.178;2024-03-22T12:22:30;9.45;;;6.18;;
7645;SDS011;3864;48.180;14.178;2024-03-22T12:24:56;11.85;;;5.80;;
7645;SDS011;3864;48.180;14.178;2024-03-22T12:27:24;8.68;;;5.72;;
7645;SDS011;3864;48.180;14.178;2024-03-22T12:29:50;8.95;;;6.90;;
7645;SDS011;3864;48.180;14.178;2024-03-22T12:32:18;8.40;;;5.45;;
7645;SDS011;3864;48.180;14.178;2024-03-22T12:34:44;9.98;;;6.15;;
7645;SDS011;3864;48.180;14.178;2024-03-22T12:37:13;9.02;;;6.40;;
7645;SDS011;3864;48.180;14.178;2024-03-22T12:39:40;8.00;;;6.15;;
7645;SDS011;3864;48.180;14.178;2024-03-22T12:42:07;9.30;;;6.25;;
7645;SDS011;3864;48.180;14.178;2024-03-22T12:44:33;10.10;;;6.38;;
7645;SDS011;3864;48.180;14.178;2024-03-22T12:47:00;9.40;;;6.35;;
7645;SDS011;3864;48.180;14.178;2024-03-22T12:49:27;9.73;;;6.07;;
7645;SDS011;3864;48.180;14.178;2024-03-22T12:51:55;10.57;;;5.60;;
7645;SDS011;3864;48.180;14.178;2024-03-22T12:57:11;10.02;;;5.78;;
7645;SDS011;3864;48.180;14.178;2024-03-22T12:59:37;8.63;;;5.65;;
7645;SDS011;3864;48.180;14.178;2024-03-22T13:02:04;7.43;;;5.30;;
7645;SDS011;3864;48.180;14.178;2024-03-22T13:04:31;9.85;;;6.22;;
7645;SDS011;3864;48.180;14.178;2024-03-22T13:06:58;8.27;;;5.95;;
7645;SDS011;3864;48.180;14.178;2024-03-22T13:09:24;7.75;;;5.28;;
7645;SDS011;3864;48.180;14.178;2024-03-22T13:11:53;7.65;;;5.22;;
7645;SDS011;3864;48.180;14.178;2024-03-22T13:14:19;8.93;;;5.32;;
7645;SDS011;3864;48.180;14.178;2024-03-22T13:16:46;9.95;;;5.78;;
7645;SDS011;3864;48.180;14.178;2024-03-22T13:21:40;8.20;;;5.38;;
7645;SDS011;3864;48.180;14.178;2024-03-22T13:24:06;8.27;;;5.40;;
7645;SDS011;3864;48.180;14.178;2024-03-22T13:26:33;8.20;;;5.45;;
7645;SDS011;3864;48.180;14.178;2024-03-22T13:29:01;8.48;;;6.07;;
7645;SDS011;3864;48.180;14.178;2024-03-22T13:31:28;8.02;;;5.68;;
7645;SDS011;3864;48.180;14.178;2024-03-22T13:33:54;9.13;;;5.57;;
7645;SDS011;3864;48.180;14.178;2024-03-22T13:36:21;9.93;;;5.95;;
7645;SDS011;3864;48.180;14.178;2024-03-22T13:38:50;8.48;;;5.57;;
7645;SDS011;3864;48.180;14.178;2024-03-22T13:41:17;9.02;;;6.35;;
7645;SDS011;3864;48.180;14.178;2024-03-22T13:43:43;9.13;;;6.03;;
7645;SDS011;3864;48.180;14.178;2024-03-22T13:46:12;8.02;;;5.53;;
7645;SDS011;3864;48.180;14.178;2024-03-22T13:48:42;8.52;;;6.00;;
7645;SDS011;3864;48.180;14.178;2024-03-22T13:51:10;7.90;;;5.90;;
7645;SDS011;3864;48.180;14.178;2024-03-22T13:53:36;7.63;;;5.90;;
7645;SDS011;3864;48.180;14.178;2024-03-22T13:56:03;9.27;;;6.20;;
7645;SDS011;3864;48.180;14.178;2024-03-22T14:00:56;9.38;;;6.72;;
7645;SDS011;3864;48.180;14.178;2024-03-22T14:03:24;8.85;;;6.50;;
7645;SDS011;3864;48.180;14.178;2024-03-22T14:05:51;8.30;;;5.85;;
7645;SDS011;3864;48.180;14.178;2024-03-22T14:08:17;8.60;;;6.22;;
7645;SDS011;3864;48.180;14.178;2024-03-22T14:10:45;8.35;;;5.97;;
7645;SDS011;3864;48.180;14.178;2024-03-22T14:15:43;9.57;;;6.55;;
7645;SDS011;3864;48.180;14.178;2024-03-22T14:18:09;9.48;;;6.40;;
7645;SDS011;3864;48.180;14.178;2024-03-22T14:20:38;10.70;;;7.03;;
7645;SDS011;3864;48.180;14.178;2024-03-22T14:23:04;10.85;;;7.47;;
7645;SDS011;3864;48.180;14.178;2024-03-22T14:25:32;9.48;;;7.05;;
7645;SDS011;3864;48.180;14.178;2024-03-22T14:27:58;10.88;;;7.20;;
7645;SDS011;3864;48.180;14.178;2024-03-22T14:30:25;9.95;;;7.25;;
7645;SDS011;3864;48.180;14.178;2024-03-22T14:35:18;9.70;;;6.85;;
7645;SDS011;3864;48.180;14.178;2024-03-22T14:37:49;9.43;;;6.65;;
7645;SDS011;3864;48.180;14.178;2024-03-22T14:40:18;10.13;;;6.93;;
7645;SDS011;3864;48.180;14.178;2024-03-22T14:42:44;11.88;;;8.00;;
7645;SDS011;3864;48.180;14.178;2024-03-22T14:45:11;9.52;;;7.10;;
7645;SDS011;3864;48.180;14.178;2024-03-22T14:47:37;10.55;;;7.43;;
7645;SDS011;3864;48.180;14.178;2024-03-22T14:50:05;10.15;;;6.75;;
7645;SDS011;3864;48.180;14.178;2024-03-22T14:52:32;10.63;;;6.90;;
7645;SDS011;3864;48.180;14.178;2024-03-22T14:55:01;10.77;;;7.35;;
7645;SDS011;3864;48.180;14.178;2024-03-22T14:57:28;11.57;;;7.47;;
7645;SDS011;3864;48.180;14.178;2024-03-22T14:59:55;10.45;;;7.40;;
7645;SDS011;3864;48.180;14.178;2024-03-22T15:02:21;9.05;;;6.50;;
7645;SDS011;3864;48.180;14.178;2024-03-22T15:04:48;9.77;;;6.55;;
7645;SDS011;3864;48.180;14.178;2024-03-22T15:07:14;10.40;;;7.60;;
7645;SDS011;3864;48.180;14.178;2024-03-22T15:09:41;10.85;;;7.55;;
7645;SDS011;3864;48.180;14.178;2024-03-22T15:12:10;12.07;;;7.32;;
7645;SDS011;3864;48.180;14.178;2024-03-22T15:14:38;8.43;;;6.90;;